Kellogg, Minnesota
Current Conditions -  °F | °C
As of 10:53 PM on Friday 24 Oct 2014 (Local Time) from KONA Reporting Station
Haze Haze  
Wind Chill: 59°   Ceiling: 600
Heat Index: 59°   Visibility: 5mi
Dew Point: 55°   Wind: 3mph
Humidity: 88%   Direction: 240°WSW
Pressure: 29.89"   Gusts: NA
Location:  44.31°N, 92°W
Report Text: KONA 250353Z AUTO 24003KT 5SM BR OVC006 15/13 A2989 RMK AO2
Loading
Personal Weather Stations






























Interactive Weather Map New forecast layout! Learn more

10-Day Weather Forecast

Advertisements
Track Severe Weather on mobile